Time;durP1;ratioP1;P1;durP2;ratioP2;P2;SDS_P1;SDS_P2;PMS_P1;PMS_P2;Temp;Humidity;BMP_temperature;BMP_pressure;BME280_temperature;BME280_humidity;BME280_pressure;Samples;Min_cycle;Max_cycle;Signal;HPM_P1;HPM_P2
2022/02/27 00:00:17;;;;;;;28.85;14.98;;;27.40;80.80;;;;;;5105027;28;20036;-35
2022/02/27 00:02:44;;;;;;;23.52;13.85;;;27.40;81.00;;;;;;5103976;28;20324;-43
2022/02/27 00:05:11;;;;;;;24.45;14.07;;;27.40;81.10;;;;;;5105027;28;20024;-44
2022/02/27 00:07:37;;;;;;;24.30;14.80;;;27.30;81.10;;;;;;5104805;28;20028;-45
2022/02/27 00:10:06;;;;;;;21.73;14.63;;;27.40;81.30;;;;;;5104966;28;20042;-46
2022/02/27 00:12:33;;;;;;;25.35;14.57;;;27.30;81.30;;;;;;5104784;28;20309;-34
2022/02/27 00:14:59;;;;;;;33.95;13.98;;;27.30;81.30;;;;;;5104695;28;20096;-37
2022/02/27 00:17:26;;;;;;;22.33;14.73;;;27.30;81.40;;;;;;5104686;28;20019;-38
2022/02/27 00:19:53;;;;;;;22.08;14.68;;;27.30;81.30;;;;;;5104864;28;20024;-41
2022/02/27 00:22:20;;;;;;;26.20;15.88;;;27.30;81.30;;;;;;5104364;28;20091;-36
2022/02/27 00:24:47;;;;;;;25.73;15.00;;;27.30;81.20;;;;;;5104353;28;20044;-35
2022/02/27 00:27:13;;;;;;;24.70;15.18;;;27.30;81.20;;;;;;5104501;28;20008;-37
2022/02/27 00:29:40;;;;;;;28.33;14.90;;;27.30;81.10;;;;;;5104209;28;20028;-36
2022/02/27 00:32:07;;;;;;;28.00;16.52;;;27.30;81.00;;;;;;5104263;28;20087;-36
2022/02/27 00:34:34;;;;;;;19.90;16.20;;;27.20;80.90;;;;;;5104403;28;20210;-35
2022/02/27 00:37:00;;;;;;;24.27;16.33;;;27.20;81.30;;;;;;5104155;28;20040;-41
2022/02/27 00:39:27;;;;;;;41.13;17.15;;;27.20;81.20;;;;;;5104343;28;20019;-40
2022/02/27 00:41:55;;;;;;;28.20;16.40;;;27.20;81.20;;;;;;5104321;28;20236;-41
2022/02/27 00:44:21;;;;;;;29.30;15.75;;;27.20;81.20;;;;;;5104041;28;20032;-36
2022/02/27 00:46:48;;;;;;;26.92;16.27;;;27.20;80.80;;;;;;5104194;28;20020;-35
2022/02/27 00:49:14;;;;;;;25.88;16.33;;;27.20;80.70;;;;;;5104176;28;20304;-39
2022/02/27 00:51:43;;;;;;;27.75;15.85;;;27.20;80.80;;;;;;5103964;28;20212;-38
2022/02/27 00:54:09;;;;;;;23.23;16.88;;;27.20;80.80;;;;;;5103046;28;20012;-39
2022/02/27 00:56:36;;;;;;;33.40;17.45;;;27.20;80.60;;;;;;5093442;28;20016;-39
2022/02/27 00:59:03;;;;;;;25.67;16.90;;;27.10;80.60;;;;;;5092114;28;20028;-44
2022/02/27 01:01:30;;;;;;;30.83;16.65;;;27.20;80.30;;;;;;5094270;28;20083;-44
2022/02/27 01:03:58;;;;;;;24.95;16.40;;;27.10;80.10;;;;;;5092337;28;20299;-42
2022/02/27 01:06:25;;;;;;;22.08;15.70;;;27.20;80.20;;;;;;5094221;28;20031;-44
2022/02/27 01:08:53;;;;;;;25.67;15.75;;;27.10;80.30;;;;;;5099365;28;20079;-43
2022/02/27 01:11:20;;;;;;;20.83;15.68;;;27.10;80.40;;;;;;5104361;28;20069;-42
2022/02/27 01:13:46;;;;;;;26.55;15.80;;;27.10;80.30;;;;;;5103821;28;20228;-43
2022/02/27 01:16:13;;;;;;;26.88;16.45;;;27.10;80.20;;;;;;5104246;28;20020;-38
2022/02/27 01:18:39;;;;;;;42.50;16.85;;;27.10;80.20;;;;;;5097880;28;20028;-42
2022/02/27 01:21:06;;;;;;;34.28;16.95;;;27.10;80.20;;;;;;5089312;28;20036;-44
2022/02/27 01:23:33;;;;;;;28.58;15.88;;;27.00;80.10;;;;;;5092695;28;20024;-44
2022/02/27 01:25:59;;;;;;;25.30;16.45;;;27.00;80.00;;;;;;5092465;28;20044;-42
2022/02/27 01:28:26;;;;;;;30.02;17.83;;;27.00;79.80;;;;;;5092356;28;20037;-43
2022/02/27 01:30:54;;;;;;;26.30;18.00;;;27.00;80.00;;;;;;5083749;28;20079;-44
2022/02/27 01:33:20;;;;;;;23.45;17.08;;;27.00;80.00;;;;;;5083316;28;20031;-44
2022/02/27 01:35:47;;;;;;;20.42;17.05;;;26.90;80.00;;;;;;5083714;28;20032;-44
2022/02/27 01:38:13;;;;;;;26.40;17.35;;;26.90;80.20;;;;;;5083018;28;20059;-39
2022/02/27 01:40:40;;;;;;;27.20;17.25;;;26.90;80.20;;;;;;5083826;28;20055;-43
2022/02/27 01:43:07;;;;;;;23.00;16.45;;;26.90;80.10;;;;;;5083281;28;20032;-42
2022/02/27 01:45:33;;;;;;;22.73;16.67;;;26.90;80.20;;;;;;5083587;28;20204;-47
2022/02/27 01:48:01;;;;;;;23.02;16.33;;;26.80;80.00;;;;;;5083346;28;20057;-42
2022/02/27 01:50:28;;;;;;;26.80;16.30;;;26.80;79.90;;;;;;5083597;28;20052;-42
2022/02/27 01:52:54;;;;;;;31.65;17.23;;;26.80;80.20;;;;;;5082832;28;20261;-39
2022/02/27 01:55:23;;;;;;;27.48;16.98;;;26.70;80.20;;;;;;5083497;28;20028;-46
2022/02/27 01:57:50;;;;;;;30.65;17.83;;;26.70;80.50;;;;;;5083182;28;20028;-43
2022/02/27 02:00:17;;;;;;;26.48;17.45;;;26.70;80.90;;;;;;5083265;28;20032;-40
2022/02/27 02:02:46;;;;;;;27.33;17.63;;;26.70;81.30;;;;;;5083152;28;20080;-39
2022/02/27 02:05:13;;;;;;;28.02;17.20;;;26.70;81.30;;;;;;5083470;28;20028;-44
2022/02/27 02:07:41;;;;;;;28.75;16.98;;;26.70;81.30;;;;;;5086470;28;20008;-45
2022/02/27 02:10:09;;;;;;;28.95;17.05;;;26.70;81.30;;;;;;5089815;28;20027;-42
2022/02/27 02:12:36;;;;;;;30.73;18.00;;;26.70;81.40;;;;;;5097161;28;20027;-45
2022/02/27 02:15:04;;;;;;;30.80;17.02;;;26.70;81.40;;;;;;5095804;28;20024;-45
2022/02/27 02:17:31;;;;;;;28.70;17.83;;;26.60;81.50;;;;;;5097847;28;20016;-43
2022/02/27 02:19:58;;;;;;;28.02;18.65;;;26.60;81.60;;;;;;5094724;28;20054;-40
2022/02/27 02:22:25;;;;;;;27.30;18.85;;;26.60;81.90;;;;;;5096102;28;20076;-38
2022/02/27 02:24:51;;;;;;;29.30;19.00;;;26.60;82.00;;;;;;5095218;28;20943;-34
2022/02/27 02:27:18;;;;;;;28.50;20.10;;;26.60;82.20;;;;;;5090763;28;20323;-35
2022/02/27 02:29:45;;;;;;;30.60;18.75;;;26.60;82.30;;;;;;5097233;28;20079;-35
2022/02/27 02:32:12;;;;;;;25.80;18.98;;;26.60;82.10;;;;;;5096236;28;20031;-43
2022/02/27 02:34:38;;;;;;;24.38;17.80;;;26.60;81.90;;;;;;5095293;28;20095;-42
2022/02/27 02:37:05;;;;;;;20.73;18.35;;;26.60;81.90;;;;;;5096680;28;20016;-55
2022/02/27 02:39:32;;;;;;;24.48;18.25;;;26.60;81.90;;;;;;5094965;28;20228;-44
2022/02/27 02:41:59;;;;;;;27.95;19.73;;;26.60;81.90;;;;;;5096889;28;20024;-43
2022/02/27 02:44:26;;;;;;;32.28;24.02;;;26.60;81.90;;;;;;5095372;28;20016;-45
2022/02/27 02:46:53;;;;;;;31.42;24.90;;;26.50;81.70;;;;;;5096209;28;20076;-46
2022/02/27 02:49:20;;;;;;;29.23;22.73;;;26.60;81.60;;;;;;5096094;28;20032;-44
2022/02/27 02:51:47;;;;;;;24.50;21.45;;;26.60;82.20;;;;;;5095078;28;20019;-42
2022/02/27 02:54:14;;;;;;;41.58;22.33;;;26.60;81.80;;;;;;5095555;28;20060;-44
2022/02/27 02:56:41;;;;;;;28.95;20.30;;;26.60;81.90;;;;;;5094752;28;20024;-44
2022/02/27 02:59:08;;;;;;;30.20;19.83;;;26.60;81.90;;;;;;5096133;28;20016;-46
2022/02/27 03:01:35;;;;;;;27.45;19.38;;;26.60;81.70;;;;;;5095358;28;20228;-45
2022/02/27 03:04:03;;;;;;;29.23;19.73;;;26.60;81.90;;;;;;5097054;28;20020;-35
2022/02/27 03:06:30;;;;;;;28.05;19.45;;;26.60;82.10;;;;;;5106515;28;20056;-43
2022/02/27 03:08:57;;;;;;;24.20;18.40;;;26.60;82.00;;;;;;5105516;28;20020;-44
2022/02/27 03:11:24;;;;;;;25.50;18.10;;;26.60;82.20;;;;;;5105042;28;20026;-44
2022/02/27 03:13:51;;;;;;;35.55;18.52;;;26.60;82.20;;;;;;5105716;28;20123;-35
2022/02/27 03:16:19;;;;;;;31.73;17.73;;;26.50;82.20;;;;;;5106513;28;20204;-37
2022/02/27 03:18:45;;;;;;;27.55;17.98;;;26.50;82.00;;;;;;5104917;28;20047;-36
2022/02/27 03:21:12;;;;;;;29.55;18.17;;;26.60;82.10;;;;;;5105316;28;20042;-36
2022/02/27 03:23:39;;;;;;;28.60;19.08;;;26.50;82.00;;;;;;5104851;28;20039;-38
2022/02/27 03:26:06;;;;;;;31.73;19.15;;;26.60;82.30;;;;;;5105973;28;20027;-44
2022/02/27 03:28:32;;;;;;;34.50;18.33;;;26.60;82.20;;;;;;5105450;28;20028;-46
2022/02/27 03:30:59;;;;;;;35.35;17.77;;;26.50;82.20;;;;;;5105911;28;20020;-45
2022/02/27 03:33:26;;;;;;;35.20;18.42;;;26.60;82.30;;;;;;5105501;28;20087;-46
2022/02/27 03:35:52;;;;;;;26.20;17.77;;;26.60;82.30;;;;;;5105300;28;20445;-42
2022/02/27 03:38:19;;;;;;;30.27;17.85;;;26.60;82.40;;;;;;5105180;28;20028;-46
2022/02/27 03:40:46;;;;;;;41.40;17.55;;;26.60;82.50;;;;;;5103323;28;20032;-49
2022/02/27 03:43:12;;;;;;;27.58;17.60;;;26.60;82.50;;;;;;5105144;28;20264;-47
2022/02/27 03:45:39;;;;;;;27.83;17.58;;;26.60;82.60;;;;;;5095096;28;20044;-45
2022/02/27 03:48:06;;;;;;;33.60;18.08;;;26.60;82.70;;;;;;5084909;28;20028;-45
2022/02/27 03:50:33;;;;;;;42.67;19.13;;;26.60;82.80;;;;;;5096041;28;20023;-44
2022/02/27 03:52:59;;;;;;;50.40;19.40;;;26.60;82.80;;;;;;5103847;28;20028;-38
2022/02/27 03:55:26;;;;;;;33.63;17.98;;;26.60;83.20;;;;;;5105270;28;20043;-35
2022/02/27 03:57:52;;;;;;;28.42;18.95;;;26.60;83.10;;;;;;5105016;28;20034;-44
2022/02/27 04:00:20;;;;;;;33.55;17.30;;;26.60;83.30;;;;;;5105235;28;20071;-43
2022/02/27 04:02:47;;;;;;;24.02;17.60;;;26.60;83.00;;;;;;5105104;28;20096;-47
2022/02/27 04:05:15;;;;;;;22.45;17.73;;;26.50;82.90;;;;;;5104925;28;20024;-45
2022/02/27 04:07:42;;;;;;;35.42;18.42;;;26.40;82.90;;;;;;5104508;28;20061;-43
2022/02/27 04:10:10;;;;;;;42.72;17.85;;;26.50;83.10;;;;;;5105101;28;20028;-37
2022/02/27 04:12:37;;;;;;;51.03;20.02;;;26.50;83.10;;;;;;5104743;28;20024;-43
2022/02/27 04:15:07;;;;;;;58.13;40.50;;;26.50;83.20;;;;;;5104505;28;20036;-44
2022/02/27 04:17:33;;;;;;;52.53;42.28;;;26.50;83.20;;;;;;5101251;28;20058;-48
2022/02/27 04:20:00;;;;;;;51.88;35.45;;;26.50;83.10;;;;;;5099044;28;20020;-46
2022/02/27 04:22:28;;;;;;;66.93;52.08;;;26.50;83.10;;;;;;5102271;28;20031;-48
2022/02/27 04:24:55;;;;;;;50.75;40.03;;;26.50;83.00;;;;;;5089201;28;20116;-42
2022/02/27 04:27:22;;;;;;;39.20;32.60;;;26.50;83.00;;;;;;5084160;28;20024;-41
2022/02/27 04:29:48;;;;;;;42.17;33.53;;;26.50;83.00;;;;;;5082637;28;20063;-44
2022/02/27 04:32:15;;;;;;;39.00;31.55;;;26.50;82.90;;;;;;5091498;28;20362;-44
2022/02/27 04:34:42;;;;;;;35.08;27.95;;;26.50;82.60;;;;;;5101596;28;20252;-43
2022/02/27 04:37:08;;;;;;;32.80;27.73;;;26.50;82.40;;;;;;5103965;28;20024;-35
2022/02/27 04:39:35;;;;;;;33.20;25.23;;;26.50;82.50;;;;;;5104523;28;20020;-42
2022/02/27 04:42:02;;;;;;;29.75;23.10;;;26.50;82.40;;;;;;5104265;28;20081;-43
2022/02/27 04:44:28;;;;;;;24.33;20.88;;;26.40;82.00;;;;;;5101621;28;20067;-44
2022/02/27 04:46:55;;;;;;;30.77;21.75;;;26.40;81.80;;;;;;5096331;28;20333;-48
2022/02/27 04:49:25;;;;;;;25.73;19.33;;;26.40;82.00;;;;;;5084004;28;20035;-45
2022/02/27 04:51:52;;;;;;;28.92;18.38;;;26.40;82.30;;;;;;5083455;28;20029;-49
2022/02/27 04:54:19;;;;;;;30.38;18.95;;;26.40;82.10;;;;;;5100826;28;20023;-42
2022/02/27 04:56:45;;;;;;;34.08;17.30;;;26.40;82.20;;;;;;5104122;28;20324;-46
2022/02/27 04:59:12;;;;;;;30.98;17.65;;;26.40;82.10;;;;;;5098058;28;20255;-45
2022/02/27 05:01:40;;;;;;;29.92;17.65;;;26.40;82.20;;;;;;5083105;28;20024;-45
2022/02/27 05:04:06;;;;;;;30.40;17.63;;;26.40;82.30;;;;;;5083753;28;20251;-44
2022/02/27 05:06:33;;;;;;;37.72;16.77;;;26.40;82.40;;;;;;5083610;28;20224;-44
2022/02/27 05:09:00;;;;;;;29.35;17.27;;;26.40;82.40;;;;;;5083781;28;20019;-43
2022/02/27 05:11:27;;;;;;;24.70;15.73;;;26.40;82.30;;;;;;5084211;28;20103;-46
2022/02/27 05:13:53;;;;;;;24.83;16.50;;;26.40;82.30;;;;;;5083587;28;20035;-43
2022/02/27 05:16:20;;;;;;;24.60;16.05;;;26.40;82.30;;;;;;5084171;28;20285;-41
2022/02/27 05:18:47;;;;;;;30.83;17.17;;;26.40;82.30;;;;;;5083845;28;20152;-44
2022/02/27 05:21:13;;;;;;;27.27;16.40;;;26.40;82.50;;;;;;5083977;28;20035;-42
2022/02/27 05:23:40;;;;;;;28.90;16.25;;;26.50;82.70;;;;;;5083526;28;20312;-44
2022/02/27 05:26:06;;;;;;;29.27;16.40;;;26.50;82.70;;;;;;5084051;28;20288;-42
2022/02/27 05:28:33;;;;;;;28.52;17.33;;;26.50;82.80;;;;;;5083603;28;20302;-40
2022/02/27 05:30:59;;;;;;;27.42;15.68;;;26.50;82.90;;;;;;5084007;28;20044;-41
2022/02/27 05:33:26;;;;;;;26.65;16.00;;;26.50;82.90;;;;;;5083670;28;20029;-46
2022/02/27 05:35:52;;;;;;;31.25;17.33;;;26.40;82.80;;;;;;5083817;28;20103;-43
2022/02/27 05:38:19;;;;;;;30.13;17.52;;;26.40;83.10;;;;;;5083559;28;20031;-45
2022/02/27 05:40:46;;;;;;;29.13;16.08;;;26.40;83.70;;;;;;5085005;28;20036;-46
2022/02/27 05:43:12;;;;;;;37.65;18.02;;;26.40;84.10;;;;;;5087230;28;20028;-43
2022/02/27 05:45:39;;;;;;;32.42;16.95;;;26.40;85.30;;;;;;5087288;28;20347;-44
2022/02/27 05:48:05;;;;;;;32.60;18.38;;;26.50;86.40;;;;;;5087354;28;20028;-42
2022/02/27 05:50:32;;;;;;;30.80;17.02;;;26.40;86.00;;;;;;5087456;28;20050;-43
2022/02/27 05:52:59;;;;;;;25.42;17.27;;;26.40;86.50;;;;;;5087168;28;20024;-45
2022/02/27 05:55:25;;;;;;;36.67;19.55;;;26.30;86.90;;;;;;5087392;28;20033;-42
2022/02/27 05:57:52;;;;;;;32.13;19.70;;;26.30;88.30;;;;;;5087116;28;20220;-40
2022/02/27 06:00:18;;;;;;;35.08;19.20;;;26.20;88.50;;;;;;5087293;28;20361;-45
2022/02/27 06:02:45;;;;;;;24.38;18.13;;;26.10;88.00;;;;;;5087233;28;20037;-44
2022/02/27 06:05:11;;;;;;;25.95;17.83;;;26.10;87.90;;;;;;5086903;28;20028;-43
2022/02/27 06:07:38;;;;;;;23.55;17.73;;;26.00;87.40;;;;;;5085868;28;20075;-46
2022/02/27 06:10:06;;;;;;;27.85;17.65;;;26.00;87.80;;;;;;5087096;28;20305;-35
2022/02/27 06:12:33;;;;;;;27.00;18.88;;;25.90;87.70;;;;;;5086896;28;20241;-41
2022/02/27 06:15:01;;;;;;;29.77;20.02;;;26.00;88.00;;;;;;5086900;28;20024;-45
2022/02/27 06:17:27;;;;;;;37.03;19.95;;;26.00;88.30;;;;;;5086922;28;20316;-45
2022/02/27 06:19:54;;;;;;;30.67;20.52;;;26.00;88.50;;;;;;5087045;28;20032;-48
2022/02/27 06:22:21;;;;;;;36.03;20.23;;;26.00;89.00;;;;;;5086591;28;20204;-45
2022/02/27 06:24:47;;;;;;;31.17;20.50;;;26.00;89.30;;;;;;5086485;28;20053;-44
2022/02/27 06:27:14;;;;;;;25.15;19.90;;;26.00;89.10;;;;;;5086660;28;20029;-44
2022/02/27 06:29:41;;;;;;;32.08;19.77;;;25.90;88.80;;;;;;5086436;28;20025;-45
2022/02/27 06:32:07;;;;;;;27.65;19.92;;;25.90;88.70;;;;;;5086538;28;20024;-46
2022/02/27 06:34:34;;;;;;;31.13;20.60;;;25.90;89.00;;;;;;5086471;28;20029;-43
2022/02/27 06:37:00;;;;;;;29.70;20.42;;;26.00;89.30;;;;;;5086353;28;20305;-46
2022/02/27 06:39:27;;;;;;;36.83;21.40;;;26.00;89.40;;;;;;5086522;28;20224;-43
2022/02/27 06:41:54;;;;;;;33.88;22.75;;;25.90;89.60;;;;;;5086645;28;20039;-41
2022/02/27 06:44:20;;;;;;;38.30;23.10;;;25.90;89.80;;;;;;5086057;28;20062;-44
2022/02/27 06:46:47;;;;;;;33.65;22.35;;;25.80;90.10;;;;;;5086184;28;20021;-44
2022/02/27 06:49:14;;;;;;;29.20;20.98;;;25.70;90.40;;;;;;5086109;28;20087;-41
2022/02/27 06:51:40;;;;;;;28.48;20.17;;;25.70;90.40;;;;;;5085989;28;20021;-47
2022/02/27 06:54:07;;;;;;;26.17;18.60;;;25.70;90.50;;;;;;5086147;28;20046;-46
2022/02/27 06:56:33;;;;;;;30.17;19.92;;;25.70;90.50;;;;;;5086599;28;20040;-46
2022/02/27 06:59:00;;;;;;;24.67;19.10;;;25.70;90.50;;;;;;5085912;28;20026;-45
2022/02/27 07:01:26;;;;;;;25.48;18.65;;;25.70;90.50;;;;;;5086479;28;20036;-45
2022/02/27 07:03:53;;;;;;;25.83;18.83;;;25.80;90.50;;;;;;5085924;28;20255;-44
2022/02/27 07:06:19;;;;;;;24.00;18.02;;;25.70;90.50;;;;;;5086194;28;20023;-43
2022/02/27 07:08:46;;;;;;;20.85;18.48;;;25.60;90.50;;;;;;5085849;28;20317;-43
2022/02/27 07:11:13;;;;;;;22.00;18.08;;;25.60;90.60;;;;;;5086273;28;20036;-44
2022/02/27 07:13:41;;;;;;;20.35;17.58;;;25.60;90.60;;;;;;5085741;28;20024;-43
2022/02/27 07:16:07;;;;;;;21.77;17.42;;;25.60;90.60;;;;;;5086183;28;20312;-45
2022/02/27 07:18:34;;;;;;;19.75;16.88;;;25.60;90.60;;;;;;5085863;28;20032;-43
2022/02/27 07:21:00;;;;;;;18.73;16.77;;;25.60;90.60;;;;;;5085984;28;20312;-43
2022/02/27 07:23:27;;;;;;;25.52;17.63;;;25.60;90.50;;;;;;5085445;28;20107;-46
2022/02/27 07:25:54;;;;;;;18.08;16.33;;;25.60;90.50;;;;;;5085171;28;20236;-39
2022/02/27 07:28:20;;;;;;;21.45;16.52;;;25.70;90.50;;;;;;5085657;28;20376;-40
2022/02/27 07:30:47;;;;;;;19.05;17.05;;;25.70;90.50;;;;;;5085689;28;20078;-45
2022/02/27 07:33:14;;;;;;;17.52;15.68;;;25.70;90.40;;;;;;5085356;28;20028;-45
2022/02/27 07:35:40;;;;;;;19.65;16.92;;;25.70;90.40;;;;;;5085199;28;20049;-41
2022/02/27 07:38:07;;;;;;;17.05;15.43;;;25.70;90.40;;;;;;5085145;28;20201;-45
2022/02/27 07:40:33;;;;;;;18.88;16.92;;;25.70;90.40;;;;;;5085492;28;20186;-44
2022/02/27 07:43:01;;;;;;;22.73;16.38;;;25.70;90.30;;;;;;5085167;28;20063;-42
2022/02/27 07:45:27;;;;;;;18.80;16.02;;;25.80;90.40;;;;;;5085199;28;20036;-46
2022/02/27 07:47:54;;;;;;;18.90;16.42;;;25.80;90.30;;;;;;5085123;28;20039;-44
2022/02/27 07:50:20;;;;;;;19.52;16.98;;;25.70;90.30;;;;;;5085247;28;20045;-44
2022/02/27 07:52:47;;;;;;;19.10;16.70;;;25.80;90.30;;;;;;5084817;28;20050;-45
2022/02/27 07:55:14;;;;;;;20.42;16.58;;;25.70;90.20;;;;;;5085137;28;20024;-45
2022/02/27 07:57:40;;;;;;;17.30;15.48;;;25.70;90.30;;;;;;5084907;28;20020;-44
2022/02/27 08:00:08;;;;;;;18.60;16.67;;;25.70;90.30;;;;;;5084842;28;20032;-45
2022/02/27 08:02:34;;;;;;;18.00;15.77;;;25.70;90.30;;;;;;5084887;28;20012;-44
2022/02/27 08:05:01;;;;;;;16.88;15.15;;;25.70;90.30;;;;;;5084411;28;20035;-45
2022/02/27 08:07:27;;;;;;;16.63;15.00;;;25.70;90.30;;;;;;5084612;28;20029;-45
2022/02/27 08:09:54;;;;;;;16.08;14.57;;;25.70;90.40;;;;;;5085008;28;20309;-45
2022/02/27 08:12:22;;;;;;;17.15;15.32;;;25.60;90.40;;;;;;5084716;28;20024;-45
2022/02/27 08:14:48;;;;;;;15.10;13.65;;;25.60;90.50;;;;;;5084564;28;20029;-45
2022/02/27 08:17:17;;;;;;;16.05;14.68;;;25.60;90.50;;;;;;5084758;28;20317;-43
2022/02/27 08:19:45;;;;;;;15.60;14.20;;;25.60;90.50;;;;;;5084595;28;20032;-45
2022/02/27 08:22:11;;;;;;;15.60;14.10;;;25.60;90.50;;;;;;5084294;28;20050;-44
2022/02/27 08:24:38;;;;;;;15.70;14.32;;;25.60;90.40;;;;;;5084215;28;20115;-42
2022/02/27 08:27:05;;;;;;;16.27;14.73;;;25.70;90.40;;;;;;5084377;28;20027;-41
2022/02/27 08:29:31;;;;;;;15.80;14.15;;;25.70;90.70;;;;;;5084188;28;20052;-40
2022/02/27 08:31:58;;;;;;;14.77;13.48;;;25.60;90.40;;;;;;5084252;28;20027;-44
2022/02/27 08:34:27;;;;;;;14.82;13.43;;;25.70;90.30;;;;;;5084266;28;20032;-44
2022/02/27 08:36:56;;;;;;;14.10;12.90;;;25.70;90.40;;;;;;5084093;28;20028;-45
2022/02/27 08:39:22;;;;;;;13.35;12.18;;;25.70;90.40;;;;;;5084387;28;20020;-44
2022/02/27 08:41:49;;;;;;;12.85;11.65;;;25.70;90.30;;;;;;5084303;28;20032;-44
2022/02/27 08:44:16;;;;;;;12.93;11.73;;;25.70;90.30;;;;;;5083880;28;20040;-44
2022/02/27 08:46:42;;;;;;;12.30;11.10;;;25.70;90.30;;;;;;5083999;28;20087;-44
2022/02/27 08:49:09;;;;;;;12.40;11.10;;;25.70;90.30;;;;;;5084082;28;20024;-43
2022/02/27 08:51:35;;;;;;;12.88;11.60;;;25.70;90.30;;;;;;5083857;28;20024;-48
2022/02/27 08:54:02;;;;;;;12.20;11.10;;;25.60;90.30;;;;;;5084032;28;20083;-43
2022/02/27 08:56:29;;;;;;;11.57;10.57;;;25.60;90.30;;;;;;5084441;28;20107;-40
2022/02/27 08:58:56;;;;;;;10.98;9.98;;;25.60;90.30;;;;;;5083822;28;20050;-45
2022/02/27 09:01:22;;;;;;;11.20;10.18;;;25.60;90.30;;;;;;5084356;28;20066;-45
2022/02/27 09:03:49;;;;;;;11.40;10.40;;;25.60;90.30;;;;;;5083763;28;20036;-43
2022/02/27 09:06:15;;;;;;;10.00;9.10;;;25.60;90.30;;;;;;5084218;28;20075;-47
2022/02/27 09:08:42;;;;;;;10.20;9.30;;;25.60;90.20;;;;;;5083865;28;20115;-46
2022/02/27 09:11:09;;;;;;;8.95;7.97;;;25.60;90.20;;;;;;5084251;28;20095;-43
2022/02/27 09:13:36;;;;;;;8.35;7.63;;;25.60;90.20;;;;;;5083802;28;20082;-40
2022/02/27 09:16:02;;;;;;;8.57;7.65;;;25.60;90.20;;;;;;5085667;28;20028;-43
2022/02/27 09:18:29;;;;;;;7.95;7.15;;;25.60;90.10;;;;;;5088134;28;20087;-48
2022/02/27 09:20:57;;;;;;;7.75;7.05;;;25.60;90.10;;;;;;5087787;28;20035;-44
2022/02/27 09:23:24;;;;;;;7.30;6.60;;;25.60;90.10;;;;;;5088009;28;20104;-44
2022/02/27 09:25:50;;;;;;;7.50;6.47;;;25.70;90.00;;;;;;5087589;28;20048;-43
2022/02/27 09:28:17;;;;;;;8.27;6.78;;;25.70;90.10;;;;;;5087873;28;20197;-47
2022/02/27 09:30:44;;;;;;;6.65;5.97;;;25.70;90.00;;;;;;5087921;28;20016;-45
2022/02/27 09:33:11;;;;;;;6.30;5.80;;;25.70;90.00;;;;;;5087728;28;20099;-47
2022/02/27 09:35:38;;;;;;;7.55;5.90;;;25.70;89.90;;;;;;5087976;28;20037;-43
2022/02/27 09:38:06;;;;;;;6.90;6.20;;;25.70;89.80;;;;;;5087457;28;20020;-45
2022/02/27 09:40:32;;;;;;;6.60;6.03;;;25.70;90.00;;;;;;5087778;28;20305;-45
2022/02/27 09:42:59;;;;;;;7.20;6.50;;;25.60;89.90;;;;;;5087488;28;20059;-46
2022/02/27 09:45:26;;;;;;;7.65;6.85;;;25.60;90.10;;;;;;5087543;28;20070;-46
2022/02/27 09:47:55;;;;;;;7.18;6.57;;;25.60;90.00;;;;;;5087345;28;20390;-48
2022/02/27 09:50:23;;;;;;;7.22;6.53;;;25.60;90.00;;;;;;5087506;28;20035;-45
2022/02/27 09:52:50;;;;;;;7.55;6.85;;;25.60;90.10;;;;;;5087127;28;20020;-44
2022/02/27 09:55:18;;;;;;;8.50;7.65;;;25.60;90.10;;;;;;5087364;28;20075;-45
2022/02/27 09:57:46;;;;;;;9.05;7.57;;;25.60;90.00;;;;;;5087176;28;20025;-43
2022/02/27 10:00:15;;;;;;;8.80;8.10;;;25.60;90.10;;;;;;5087117;28;20021;-45
2022/02/27 10:03:03;;;;;;;9.23;8.35;;;25.60;90.10;;;;;;5086948;28;20380;-43
2022/02/27 10:05:30;;;;;;;9.30;8.48;;;25.60;90.10;;;;;;5086863;28;20036;-45
2022/02/27 10:08:01;;;;;;;10.25;9.23;;;25.60;90.00;;;;;;5086981;28;20031;-45
2022/02/27 10:10:28;;;;;;;11.93;9.50;;;25.60;90.00;;;;;;5087195;28;20063;-44
2022/02/27 10:12:55;;;;;;;9.65;8.65;;;25.60;90.10;;;;;;5086836;28;20052;-45
2022/02/27 10:15:22;;;;;;;11.25;9.10;;;25.60;90.10;;;;;;5087137;28;20069;-50
2022/02/27 10:17:51;;;;;;;9.75;8.75;;;25.60;90.10;;;;;;5086794;28;20023;-40
2022/02/27 10:20:24;;;;;;;10.52;8.63;;;25.60;90.20;;;;;;5087123;28;20036;-44
2022/02/27 10:22:53;;;;;;;8.27;7.47;;;25.60;90.20;;;;;;5086591;28;20024;-41
2022/02/27 10:25:26;;;;;;;7.88;7.07;;;25.60;90.30;;;;;;5086597;28;20048;-45
2022/02/27 10:28:04;;;;;;;8.27;6.47;;;25.60;90.30;;;;;;5086160;28;20017;-44
2022/02/27 10:30:38;;;;;;;7.72;6.55;;;25.60;90.20;;;;;;5086677;28;20351;-46
2022/02/27 10:33:08;;;;;;;9.80;6.53;;;25.60;90.30;;;;;;5086540;28;20024;-45
2022/02/27 10:35:37;;;;;;;6.93;6.20;;;25.60;90.30;;;;;;5086834;28;20036;-44
2022/02/27 10:38:05;;;;;;;6.10;5.60;;;25.60;90.30;;;;;;5086273;28;20070;-45
2022/02/27 10:40:34;;;;;;;6.60;5.68;;;25.60;90.30;;;;;;5086640;28;20044;-43
2022/02/27 10:43:04;;;;;;;7.28;4.75;;;25.60;90.30;;;;;;5086280;28;20062;-46
2022/02/27 10:45:30;;;;;;;9.00;4.70;;;25.60;90.30;;;;;;5086558;28;20032;-46
2022/02/27 10:48:15;;;;;;;7.65;3.90;;;25.60;90.40;;;;;;5086379;28;20032;-41
2022/02/27 10:50:44;;;;;;;5.40;3.63;;;25.60;90.30;;;;;;5085916;28;20024;-36
2022/02/27 10:53:14;;;;;;;6.88;3.70;;;25.60;90.30;;;;;;5086254;28;20078;-37
2022/02/27 10:55:41;;;;;;;5.07;3.72;;;25.60;90.20;;;;;;5086330;28;20040;-34
2022/02/27 10:58:08;;;;;;;3.42;3.13;;;25.60;90.30;;;;;;5086093;28;20089;-37
2022/02/27 11:00:37;;;;;;;4.10;3.67;;;25.50;90.20;;;;;;5086202;28;20043;-42
2022/02/27 11:03:05;;;;;;;3.60;3.30;;;25.60;90.30;;;;;;5085904;28;20066;-33
2022/02/27 11:05:34;;;;;;;4.45;3.17;;;25.50;90.30;;;;;;5086098;28;20355;-35
2022/02/27 11:08:06;;;;;;;7.40;4.15;;;25.50;90.30;;;;;;5085934;28;20050;-41
2022/02/27 11:10:38;;;;;;;8.43;4.53;;;25.50;90.50;;;;;;5085971;28;20032;-38
2022/02/27 11:13:07;;;;;;;6.97;4.32;;;25.50;90.50;;;;;;5085780;28;20020;-36
2022/02/27 11:15:35;;;;;;;9.57;4.65;;;25.50;90.50;;;;;;5086116;28;20062;-35
2022/02/27 11:18:01;;;;;;;7.07;4.50;;;25.50;90.60;;;;;;5085669;28;20305;-35
2022/02/27 11:20:28;;;;;;;7.05;4.22;;;25.50;90.50;;;;;;5085974;28;20027;-35
2022/02/27 11:22:56;;;;;;;9.57;4.60;;;25.50;90.60;;;;;;5085393;28;20216;-37
2022/02/27 11:25:25;;;;;;;7.93;4.90;;;25.50;90.50;;;;;;5085247;28;20047;-36
2022/02/27 11:27:54;;;;;;;6.65;4.45;;;25.50;90.50;;;;;;5085413;28;20032;-34
2022/02/27 11:30:25;;;;;;;7.78;4.63;;;25.50;90.60;;;;;;5085704;28;20052;-35
2022/02/27 11:32:54;;;;;;;7.93;5.10;;;25.50;90.70;;;;;;5085555;28;20024;-46
2022/02/27 11:35:58;;;;;;;7.63;4.30;;;25.40;90.70;;;;;;5085531;28;20031;-46
2022/02/27 11:38:30;;;;;;;8.32;4.55;;;25.50;90.70;;;;;;5088171;28;20032;-47
2022/02/27 11:41:09;;;;;;;6.07;4.30;;;25.50;90.90;;;;;;5086013;28;20096;-45
2022/02/27 11:43:57;;;;;;;5.40;4.20;;;25.40;90.60;;;;;;5105636;28;20224;-44
2022/02/27 11:46:35;;;;;;;8.52;4.60;;;25.50;90.60;;;;;;5105802;28;20028;-45
2022/02/27 11:49:11;;;;;;;6.63;4.20;;;25.50;90.80;;;;;;5090085;28;20050;-45
2022/02/27 11:51:37;;;;;;;8.05;4.40;;;25.50;90.80;;;;;;5084723;28;20070;-46
2022/02/27 11:54:24;;;;;;;9.35;5.25;;;25.40;90.80;;;;;;5085093;28;20039;-46
2022/02/27 11:56:59;;;;;;;6.00;4.60;;;25.40;90.70;;;;;;5084738;28;20032;-46
2022/02/27 11:59:56;;;;;;;7.30;5.20;;;25.40;90.70;;;;;;5084745;28;20036;-45
2022/02/27 12:02:35;;;;;;;6.00;4.25;;;25.40;90.90;;;;;;5084797;28;20028;-46
2022/02/27 12:05:05;;;;;;;6.63;4.55;;;25.40;90.90;;;;;;5084727;28;20032;-39
2022/02/27 12:08:00;;;;;;;8.05;4.43;;;25.40;90.90;;;;;;5084482;28;20020;-46
2022/02/27 12:10:41;;;;;;;6.57;4.30;;;25.40;90.90;;;;;;5084777;28;20027;-49
2022/02/27 12:13:30;;;;;;;7.68;4.65;;;25.40;90.90;;;;;;5084605;28;20024;-48
2022/02/27 12:16:09;;;;;;;9.68;4.40;;;25.40;90.90;;;;;;5084729;28;20059;-41
2022/02/27 12:18:50;;;;;;;6.57;4.07;;;25.40;91.10;;;;;;5084460;28;20248;-41
2022/02/27 12:21:33;;;;;;;7.10;4.45;;;25.30;91.10;;;;;;5084589;28;20054;-40
2022/02/27 12:24:16;;;;;;;10.23;4.45;;;25.30;91.20;;;;;;5084136;28;20052;-35
2022/02/27 12:26:53;;;;;;;7.20;4.00;;;25.40;91.30;;;;;;5084268;28;20348;-44
2022/02/27 12:29:34;;;;;;;6.55;3.95;;;25.40;91.30;;;;;;5084120;28;20241;-35
2022/02/27 12:32:22;;;;;;;6.15;3.90;;;25.40;91.40;;;;;;5084481;28;20305;-35
2022/02/27 12:34:58;;;;;;;8.00;4.47;;;25.30;91.40;;;;;;5083877;28;20024;-37
2022/02/27 12:37:25;;;;;;;6.45;4.18;;;25.30;91.40;;;;;;5084205;28;20025;-44